Time;durP1;ratioP1;P1;durP2;ratioP2;P2;SDS_P1;SDS_P2;PMS_P1;PMS_P2;Temp;Humidity;BMP_temperature;BMP_pressure;BME280_temperature;BME280_humidity;BME280_pressure;Samples;Min_cycle;Max_cycle;Signal;HPM_P1;HPM_P2
2021/04/09 00:00:10;;;;;;;3.57;2.80;;;4.40;99.90;;;;;;5088162;28;20585;-71
2021/04/09 00:02:36;;;;;;;2.53;2.33;;;4.30;99.90;;;;;;5088660;28;20238;-71
2021/04/09 00:05:06;;;;;;;2.47;2.27;;;4.40;99.90;;;;;;5088653;28;20203;-71
2021/04/09 00:07:32;;;;;;;2.90;2.63;;;4.30;99.90;;;;;;5088202;28;20840;-71
2021/04/09 00:09:59;;;;;;;3.63;2.47;;;4.40;99.90;;;;;;5088237;28;20250;-71
2021/04/09 00:12:25;;;;;;;3.67;2.60;;;4.40;99.90;;;;;;5088400;28;20217;-71
2021/04/09 00:14:51;;;;;;;2.73;2.50;;;4.40;99.90;;;;;;5087296;28;20268;-72
2021/04/09 00:17:17;;;;;;;2.67;2.47;;;4.50;99.90;;;;;;5087977;28;20207;-71
2021/04/09 00:19:43;;;;;;;3.77;2.30;;;4.60;99.90;;;;;;5088024;28;20206;-71
2021/04/09 00:22:10;;;;;;;2.90;2.60;;;4.60;99.90;;;;;;5088209;28;20246;-70
2021/04/09 00:24:36;;;;;;;4.97;2.53;;;4.60;99.90;;;;;;5088386;28;20210;-71
2021/04/09 00:27:03;;;;;;;3.13;2.60;;;4.60;99.90;;;;;;5088314;28;20218;-71
2021/04/09 00:29:29;;;;;;;3.17;2.50;;;4.40;99.90;;;;;;5088096;28;20261;-71
2021/04/09 00:31:55;;;;;;;4.43;2.80;;;4.40;99.90;;;;;;5088292;28;20255;-71
2021/04/09 00:34:21;;;;;;;2.67;2.40;;;4.30;99.90;;;;;;5088213;28;20234;-71
2021/04/09 00:36:47;;;;;;;5.00;2.80;;;4.40;99.90;;;;;;5088472;28;20560;-71
2021/04/09 00:39:13;;;;;;;2.90;2.63;;;4.40;99.90;;;;;;5087951;28;20203;-71
2021/04/09 00:41:40;;;;;;;3.87;2.60;;;4.40;99.90;;;;;;5087947;28;20262;-72
2021/04/09 00:44:09;;;;;;;3.40;3.00;;;4.40;99.90;;;;;;5088056;28;20214;-71
2021/04/09 00:46:36;;;;;;;4.47;2.90;;;4.40;99.90;;;;;;5088360;28;20238;-71
2021/04/09 00:49:02;;;;;;;6.90;3.03;;;4.40;99.90;;;;;;5088001;28;20552;-72
2021/04/09 00:51:28;;;;;;;3.17;2.70;;;4.40;99.90;;;;;;5088078;28;20302;-71
2021/04/09 00:53:55;;;;;;;3.10;2.90;;;4.50;99.90;;;;;;5086769;28;20228;-71
2021/04/09 00:56:26;;;;;;;3.87;3.20;;;4.30;99.90;;;;;;5088099;28;20213;-71
2021/04/09 00:58:52;;;;;;;4.03;3.33;;;4.20;99.90;;;;;;5088265;28;20213;-71
2021/04/09 01:01:19;;;;;;;3.80;3.50;;;4.10;99.90;;;;;;5087833;28;20271;-71
2021/04/09 01:03:45;;;;;;;3.57;3.27;;;4.10;99.90;;;;;;5088196;28;20203;-71
2021/04/09 01:06:11;;;;;;;5.07;3.60;;;4.10;99.90;;;;;;5087906;28;20217;-71
2021/04/09 01:08:38;;;;;;;4.57;3.40;;;4.10;99.90;;;;;;5087719;28;20211;-71
2021/04/09 01:11:05;;;;;;;5.80;3.33;;;4.00;99.90;;;;;;5088054;28;20203;-71
2021/04/09 01:13:31;;;;;;;4.80;3.80;;;4.00;99.90;;;;;;5086851;28;20221;-71
2021/04/09 01:15:58;;;;;;;4.27;3.67;;;4.00;99.90;;;;;;5066819;28;20251;-71
2021/04/09 01:18:30;;;;;;;3.77;3.40;;;4.10;99.90;;;;;;5067555;28;20211;-71
2021/04/09 01:21:07;;;;;;;4.13;3.77;;;4.10;99.90;;;;;;5067667;28;20188;-72
2021/04/09 01:23:51;;;;;;;4.27;3.80;;;4.00;99.90;;;;;;5067419;28;20231;-72
2021/04/09 01:26:59;;;;;;;3.77;3.23;;;4.00;99.90;;;;;;5069483;28;20262;-72
2021/04/09 01:29:56;;;;;;;5.13;3.97;;;4.00;99.90;;;;;;5071366;28;20257;-72
2021/04/09 01:32:24;;;;;;;5.13;3.50;;;4.00;99.90;;;;;;5071205;28;20229;-72
2021/04/09 01:34:53;;;;;;;5.40;3.53;;;4.10;99.90;;;;;;5071171;28;20214;-72
2021/04/09 01:37:24;;;;;;;6.37;3.23;;;4.00;99.90;;;;;;5071165;28;20235;-72
2021/04/09 01:39:57;;;;;;;3.30;3.10;;;3.90;99.90;;;;;;5071126;28;20219;-71
2021/04/09 01:42:25;;;;;;;5.53;3.60;;;3.80;99.90;;;;;;5070962;28;20305;-72
2021/04/09 01:44:53;;;;;;;3.73;3.30;;;3.70;99.90;;;;;;5071034;28;20252;-72
2021/04/09 01:47:23;;;;;;;3.37;3.07;;;3.80;99.90;;;;;;5070622;28;20653;-72
2021/04/09 01:49:53;;;;;;;3.10;2.80;;;3.90;99.90;;;;;;5070900;28;20291;-72
2021/04/09 01:52:20;;;;;;;3.63;3.23;;;3.70;99.90;;;;;;5070819;28;20206;-73
2021/04/09 01:54:48;;;;;;;3.57;3.10;;;3.80;99.90;;;;;;5070837;28;20822;-73
2021/04/09 01:57:18;;;;;;;4.03;3.10;;;3.80;99.90;;;;;;5070813;28;20239;-72
2021/04/09 01:59:45;;;;;;;2.97;2.70;;;3.80;99.90;;;;;;5070816;28;20203;-73
2021/04/09 02:02:12;;;;;;;3.20;2.87;;;3.80;99.90;;;;;;5070248;28;20762;-73
2021/04/09 02:04:39;;;;;;;4.53;3.00;;;3.60;99.90;;;;;;5070843;28;20210;-73
2021/04/09 02:07:07;;;;;;;3.87;2.97;;;3.70;99.90;;;;;;5070809;28;20246;-73
2021/04/09 02:09:33;;;;;;;5.03;2.70;;;3.70;99.90;;;;;;5070207;28;20576;-73
2021/04/09 02:12:01;;;;;;;3.53;3.07;;;3.80;99.90;;;;;;5070537;28;20200;-73
2021/04/09 02:14:28;;;;;;;3.37;3.03;;;3.70;99.90;;;;;;5070291;28;20239;-73
2021/04/09 02:16:56;;;;;;;3.13;2.83;;;3.80;99.90;;;;;;5070417;28;20702;-73
2021/04/09 02:19:24;;;;;;;3.40;3.10;;;3.70;99.90;;;;;;5070587;28;20669;-73
2021/04/09 02:21:51;;;;;;;3.77;3.00;;;3.60;99.90;;;;;;5070524;28;20241;-73
2021/04/09 02:24:18;;;;;;;3.93;3.00;;;3.60;99.90;;;;;;5069957;28;20674;-73
2021/04/09 02:26:44;;;;;;;3.67;2.87;;;3.60;99.90;;;;;;5070358;28;20754;-73
2021/04/09 02:29:11;;;;;;;3.80;2.80;;;3.60;99.90;;;;;;5070338;28;20203;-72
2021/04/09 02:31:39;;;;;;;4.07;2.83;;;3.60;99.90;;;;;;5070387;28;20222;-72
2021/04/09 02:34:05;;;;;;;3.70;3.37;;;3.60;99.90;;;;;;5070179;28;20710;-72
2021/04/09 02:36:32;;;;;;;3.40;3.10;;;3.50;99.90;;;;;;5069263;28;20678;-72
2021/04/09 02:39:04;;;;;;;3.77;3.00;;;3.60;99.90;;;;;;5070030;28;20265;-72
2021/04/09 02:41:35;;;;;;;4.33;3.03;;;3.60;99.90;;;;;;5070077;28;20300;-72
2021/04/09 02:44:01;;;;;;;3.10;2.90;;;3.70;99.90;;;;;;5069876;28;20635;-73
2021/04/09 02:46:34;;;;;;;3.07;2.80;;;3.80;99.90;;;;;;5070199;28;20277;-72
2021/04/09 02:49:06;;;;;;;3.83;3.00;;;3.80;99.90;;;;;;5069677;28;20241;-73
2021/04/09 02:51:34;;;;;;;3.17;2.97;;;3.60;99.90;;;;;;5069908;28;20253;-73
2021/04/09 02:54:02;;;;;;;5.33;3.03;;;3.60;99.90;;;;;;5069694;28;20199;-73
2021/04/09 02:56:30;;;;;;;3.20;3.00;;;3.60;99.90;;;;;;5069931;28;20207;-73
2021/04/09 02:58:57;;;;;;;4.47;3.50;;;3.40;99.90;;;;;;5069887;28;20242;-73
2021/04/09 03:01:25;;;;;;;3.87;2.90;;;3.50;99.90;;;;;;5069536;28;20203;-73
2021/04/09 03:03:51;;;;;;;3.80;3.50;;;3.40;99.90;;;;;;5069734;28;20226;-73
2021/04/09 03:06:18;;;;;;;4.60;3.23;;;3.40;99.90;;;;;;5069515;28;20260;-73
2021/04/09 03:08:45;;;;;;;3.80;3.33;;;3.50;99.90;;;;;;5069480;28;20242;-73
2021/04/09 03:11:12;;;;;;;3.77;3.20;;;3.50;99.90;;;;;;5069751;28;20204;-73
2021/04/09 03:13:38;;;;;;;4.73;3.23;;;3.50;99.90;;;;;;5069056;28;20754;-73
2021/04/09 03:16:07;;;;;;;3.20;3.00;;;3.40;99.90;;;;;;5069061;28;20710;-72
2021/04/09 03:18:37;;;;;;;3.30;3.03;;;3.40;99.90;;;;;;5069130;28;20211;-73
2021/04/09 03:21:03;;;;;;;3.50;3.20;;;3.40;99.90;;;;;;5069312;28;20208;-72
2021/04/09 03:23:29;;;;;;;4.23;3.00;;;3.50;99.90;;;;;;5069170;28;20246;-73
2021/04/09 03:25:55;;;;;;;3.20;2.97;;;3.50;99.90;;;;;;5069239;28;20579;-71
2021/04/09 03:28:22;;;;;;;4.63;2.73;;;3.50;99.90;;;;;;5068904;28;20211;-72
2021/04/09 03:30:49;;;;;;;3.03;2.73;;;3.50;99.90;;;;;;5068847;28;20693;-72
2021/04/09 03:33:17;;;;;;;3.40;2.93;;;3.60;99.90;;;;;;5068859;28;20620;-72
2021/04/09 03:35:43;;;;;;;2.83;2.70;;;3.50;99.90;;;;;;5069063;28;20214;-72
2021/04/09 03:38:09;;;;;;;5.83;3.13;;;3.30;99.90;;;;;;5068965;28;20207;-72
2021/04/09 03:40:36;;;;;;;3.17;2.97;;;3.40;99.90;;;;;;5068561;28;20734;-72
2021/04/09 03:43:02;;;;;;;4.17;3.60;;;3.40;99.90;;;;;;5068330;28;20639;-73
2021/04/09 03:45:29;;;;;;;3.10;2.80;;;3.40;99.90;;;;;;5068884;28;20203;-72
2021/04/09 03:47:55;;;;;;;4.30;3.10;;;3.40;99.90;;;;;;5068272;28;20231;-72
2021/04/09 03:50:21;;;;;;;4.13;3.20;;;3.50;99.90;;;;;;5068903;28;20210;-72
2021/04/09 03:52:47;;;;;;;3.40;3.10;;;3.40;99.90;;;;;;5068690;28;20207;-72
2021/04/09 03:55:14;;;;;;;3.33;3.03;;;3.50;99.90;;;;;;5068605;28;20199;-70
2021/04/09 03:57:40;;;;;;;5.03;3.10;;;3.50;99.90;;;;;;5068491;28;20233;-70
2021/04/09 04:00:07;;;;;;;3.90;2.97;;;3.50;99.90;;;;;;5068364;28;20203;-72
2021/04/09 04:02:34;;;;;;;5.10;2.90;;;3.50;99.90;;;;;;5068085;28;20235;-72
2021/04/09 04:05:01;;;;;;;3.10;2.80;;;3.50;99.90;;;;;;5068037;28;20729;-72
2021/04/09 04:07:27;;;;;;;4.47;3.03;;;3.50;99.90;;;;;;5068050;28;20203;-72
2021/04/09 04:09:53;;;;;;;4.60;3.10;;;3.40;99.90;;;;;;5068381;28;20260;-72
2021/04/09 04:12:19;;;;;;;4.03;3.40;;;3.40;99.90;;;;;;5068123;28;20727;-72
2021/04/09 04:14:45;;;;;;;3.63;2.77;;;3.50;99.90;;;;;;5068319;28;20243;-72
2021/04/09 04:17:11;;;;;;;4.27;3.03;;;3.50;99.90;;;;;;5067994;28;20552;-72
2021/04/09 04:19:38;;;;;;;4.97;3.40;;;3.40;99.90;;;;;;5068218;28;20952;-73
2021/04/09 04:22:04;;;;;;;3.73;3.40;;;3.30;99.90;;;;;;5068099;28;20235;-73
2021/04/09 04:24:30;;;;;;;5.63;3.30;;;3.30;99.90;;;;;;5068026;28;20212;-72
2021/04/09 04:26:56;;;;;;;4.80;3.33;;;3.20;99.90;;;;;;5068215;28;20269;-72
2021/04/09 04:29:22;;;;;;;3.40;2.80;;;3.30;99.90;;;;;;5068378;28;20243;-72
2021/04/09 04:31:48;;;;;;;4.43;3.63;;;3.30;99.90;;;;;;5068337;28;20573;-72
2021/04/09 04:34:15;;;;;;;4.67;3.23;;;3.40;99.90;;;;;;5067779;28;20934;-71
2021/04/09 04:36:42;;;;;;;3.67;3.30;;;3.40;99.90;;;;;;5067957;28;20207;-72
2021/04/09 04:39:08;;;;;;;3.93;3.33;;;3.40;99.90;;;;;;5068135;28;20231;-72
2021/04/09 04:41:34;;;;;;;3.77;3.37;;;3.30;99.90;;;;;;5067702;28;20821;-72
2021/04/09 04:44:00;;;;;;;3.47;3.17;;;3.30;99.90;;;;;;5068229;28;20246;-72
2021/04/09 04:46:26;;;;;;;3.60;3.30;;;3.30;99.90;;;;;;5067999;28;20245;-71
2021/04/09 04:48:52;;;;;;;4.07;3.33;;;3.20;99.90;;;;;;5068086;28;20260;-71
2021/04/09 04:51:19;;;;;;;5.10;3.60;;;3.20;99.90;;;;;;5068083;28;20203;-72
2021/04/09 04:53:46;;;;;;;4.03;3.27;;;3.20;99.90;;;;;;5068093;28;20252;-71
2021/04/09 04:56:12;;;;;;;3.50;3.30;;;3.30;99.90;;;;;;5068470;28;20208;-72
2021/04/09 04:58:38;;;;;;;3.87;3.40;;;3.40;99.90;;;;;;5068124;28;20238;-72
2021/04/09 05:01:04;;;;;;;4.47;3.23;;;3.40;99.90;;;;;;5071586;28;20242;-72
2021/04/09 05:03:30;;;;;;;4.13;3.40;;;3.40;99.90;;;;;;5071822;28;20227;-72
2021/04/09 05:05:56;;;;;;;3.60;3.33;;;3.50;99.90;;;;;;5072060;28;20239;-72
2021/04/09 05:08:23;;;;;;;5.60;3.83;;;3.50;99.90;;;;;;5071517;28;20204;-71
2021/04/09 05:10:50;;;;;;;4.53;3.87;;;3.40;99.90;;;;;;5071764;28;20214;-71
2021/04/09 05:13:16;;;;;;;5.27;3.37;;;3.40;99.90;;;;;;5071646;28;20230;-71
2021/04/09 05:15:42;;;;;;;4.67;4.07;;;3.40;99.90;;;;;;5071125;28;20265;-71
2021/04/09 05:18:08;;;;;;;3.73;3.43;;;3.40;99.90;;;;;;5071453;28;20235;-71
2021/04/09 05:20:34;;;;;;;5.40;3.53;;;3.40;99.90;;;;;;5071526;28;20337;-72
2021/04/09 05:23:00;;;;;;;4.10;3.70;;;3.40;99.90;;;;;;5071405;28;20274;-72
2021/04/09 05:25:26;;;;;;;4.77;3.70;;;3.50;99.90;;;;;;5071373;28;20231;-72
2021/04/09 05:27:53;;;;;;;4.43;4.03;;;3.40;99.90;;;;;;5071562;28;20211;-72
2021/04/09 05:30:20;;;;;;;6.57;4.13;;;3.40;99.90;;;;;;5071494;28;20244;-72
2021/04/09 05:32:48;;;;;;;5.63;3.70;;;3.50;99.90;;;;;;5071369;28;20207;-72
2021/04/09 05:35:15;;;;;;;4.77;4.13;;;3.50;99.90;;;;;;5071332;28;20608;-72
2021/04/09 05:37:41;;;;;;;4.27;3.80;;;3.50;99.90;;;;;;5070985;28;20242;-72
2021/04/09 05:40:08;;;;;;;5.80;4.10;;;3.50;99.90;;;;;;5071306;28;20203;-72
2021/04/09 05:42:34;;;;;;;4.20;3.80;;;3.60;99.90;;;;;;5070986;28;20285;-72
2021/04/09 05:45:01;;;;;;;6.63;4.40;;;3.70;99.90;;;;;;5071202;28;20551;-72
2021/04/09 05:47:27;;;;;;;7.17;4.30;;;3.70;99.90;;;;;;5070993;28;20260;-71
2021/04/09 05:49:54;;;;;;;5.63;4.33;;;3.70;99.90;;;;;;5071001;28;20203;-70
2021/04/09 05:52:20;;;;;;;4.60;4.20;;;3.70;99.90;;;;;;5070870;28;20243;-70
2021/04/09 05:54:46;;;;;;;4.20;3.73;;;3.80;99.90;;;;;;5070599;28;20204;-70
2021/04/09 05:57:12;;;;;;;5.87;4.57;;;3.80;99.90;;;;;;5070748;28;20214;-70
2021/04/09 05:59:38;;;;;;;3.83;3.53;;;3.80;99.90;;;;;;5070478;28;20235;-70
2021/04/09 06:02:05;;;;;;;5.27;3.90;;;3.80;99.90;;;;;;5070704;28;20320;-70
2021/04/09 06:04:31;;;;;;;4.90;4.17;;;3.90;99.90;;;;;;5070745;28;20208;-71
2021/04/09 06:06:57;;;;;;;4.40;4.00;;;3.90;99.90;;;;;;5070607;28;20266;-71
2021/04/09 06:09:23;;;;;;;4.17;3.73;;;4.00;99.90;;;;;;5070175;28;20650;-71
2021/04/09 06:11:49;;;;;;;4.60;4.20;;;4.10;99.90;;;;;;5069828;28;20233;-71
2021/04/09 06:14:16;;;;;;;5.93;4.40;;;4.20;99.90;;;;;;5070487;28;20263;-71
2021/04/09 06:16:42;;;;;;;4.70;4.10;;;4.20;99.90;;;;;;5070235;28;20573;-71
2021/04/09 06:19:09;;;;;;;5.83;4.13;;;4.20;99.90;;;;;;5070440;28;20304;-70
2021/04/09 06:21:35;;;;;;;6.13;4.10;;;4.20;99.90;;;;;;5070056;28;20678;-72
2021/04/09 06:24:02;;;;;;;4.33;3.90;;;4.20;99.90;;;;;;5070528;28;20212;-72
2021/04/09 06:26:28;;;;;;;4.80;4.00;;;4.30;99.90;;;;;;5070216;28;20680;-72
2021/04/09 06:28:55;;;;;;;5.50;4.93;;;4.30;99.90;;;;;;5070046;28;20630;-72
2021/04/09 06:31:21;;;;;;;5.20;4.37;;;4.30;99.90;;;;;;5070379;28;20203;-72
2021/04/09 06:33:47;;;;;;;5.40;4.23;;;4.30;99.90;;;;;;5070274;28;20253;-72
2021/04/09 06:36:14;;;;;;;6.27;4.17;;;4.40;99.90;;;;;;5069983;28;20268;-72
2021/04/09 06:38:40;;;;;;;6.00;4.10;;;4.40;99.90;;;;;;5069960;28;20208;-71
2021/04/09 06:41:09;;;;;;;4.47;4.10;;;4.50;99.90;;;;;;5070027;28;20314;-71
2021/04/09 06:43:36;;;;;;;5.23;4.50;;;4.60;99.90;;;;;;5069683;28;20645;-72
2021/04/09 06:46:02;;;;;;;4.57;4.17;;;4.60;99.90;;;;;;5069980;28;20285;-70
2021/04/09 06:48:29;;;;;;;8.07;4.00;;;4.70;99.90;;;;;;5069744;28;20263;-70
2021/04/09 06:50:55;;;;;;;4.37;4.07;;;4.80;99.90;;;;;;5069921;28;20245;-70
2021/04/09 06:53:23;;;;;;;5.67;4.40;;;4.80;99.90;;;;;;5069692;28;20259;-70
2021/04/09 06:55:51;;;;;;;8.33;4.20;;;4.90;99.90;;;;;;5069317;28;20688;-71
2021/04/09 06:58:20;;;;;;;7.33;5.00;;;4.90;99.90;;;;;;5069572;28;20229;-71
2021/04/09 07:00:51;;;;;;;4.77;4.27;;;5.00;99.90;;;;;;5069430;28;20207;-71
2021/04/09 07:03:17;;;;;;;5.10;4.23;;;5.00;99.90;;;;;;5069558;28;20254;-71
2021/04/09 07:05:43;;;;;;;5.37;4.30;;;5.10;99.90;;;;;;5069481;28;20251;-71
2021/04/09 07:08:09;;;;;;;4.70;4.20;;;5.20;99.90;;;;;;5077723;28;20203;-72
2021/04/09 07:10:36;;;;;;;4.93;4.53;;;5.20;99.90;;;;;;5069023;28;20689;-72
2021/04/09 07:13:04;;;;;;;5.77;4.70;;;5.30;99.90;;;;;;5072037;28;20213;-72
2021/04/09 07:15:37;;;;;;;4.67;4.10;;;5.40;99.90;;;;;;5078364;28;20226;-72
2021/04/09 07:18:06;;;;;;;4.60;4.20;;;5.40;99.90;;;;;;5080212;28;20241;-72
2021/04/09 07:20:34;;;;;;;5.83;4.23;;;5.40;99.90;;;;;;5074411;28;20204;-71
2021/04/09 07:23:02;;;;;;;5.00;3.97;;;5.50;99.90;;;;;;5085724;28;20223;-71
2021/04/09 07:25:30;;;;;;;4.67;4.20;;;5.60;99.90;;;;;;5074918;28;20343;-71
2021/04/09 07:28:14;;;;;;;5.00;4.30;;;5.60;99.90;;;;;;5072296;28;20662;-72
2021/04/09 07:30:42;;;;;;;6.50;4.37;;;5.80;99.90;;;;;;5068975;28;20220;-72
2021/04/09 07:33:10;;;;;;;5.37;4.13;;;5.90;99.90;;;;;;5068696;28;20218;-72
2021/04/09 07:35:48;;;;;;;5.57;4.47;;;6.00;99.90;;;;;;5068401;28;21027;-71
2021/04/09 07:38:25;;;;;;;5.50;4.27;;;6.10;99.90;;;;;;5068167;28;20209;-72
2021/04/09 07:40:57;;;;;;;4.97;4.37;;;6.10;99.90;;;;;;5068886;28;20223;-72
2021/04/09 07:43:28;;;;;;;4.67;4.27;;;6.20;99.90;;;;;;5065728;28;20261;-71
2021/04/09 07:45:56;;;;;;;6.57;3.97;;;6.30;99.90;;;;;;5064994;28;20648;-71
2021/04/09 07:48:29;;;;;;;7.00;4.10;;;6.40;99.90;;;;;;5064771;28;20281;-71
2021/04/09 07:50:55;;;;;;;4.23;3.87;;;6.50;99.90;;;;;;5064826;28;20637;-72
2021/04/09 07:53:41;;;;;;;6.57;4.33;;;6.60;99.90;;;;;;5064703;28;20211;-72
2021/04/09 07:56:09;;;;;;;5.60;4.17;;;6.80;99.90;;;;;;5064586;28;20933;-72
2021/04/09 07:58:37;;;;;;;5.13;4.40;;;6.90;99.90;;;;;;5064663;28;20211;-71
2021/04/09 08:01:05;;;;;;;5.40;4.23;;;6.90;99.90;;;;;;5064592;28;20686;-72
2021/04/09 08:03:33;;;;;;;5.17;4.40;;;6.90;99.90;;;;;;5064616;28;20234;-72
2021/04/09 08:06:07;;;;;;;4.60;4.20;;;6.80;99.90;;;;;;5064206;28;20866;-72
2021/04/09 08:08:33;;;;;;;4.63;4.23;;;6.80;99.90;;;;;;5064440;28;20207;-71
2021/04/09 08:11:18;;;;;;;6.83;4.10;;;6.80;99.90;;;;;;5069548;28;20203;-71
2021/04/09 08:13:56;;;;;;;4.77;4.27;;;6.90;99.90;;;;;;5084821;28;20278;-72
2021/04/09 08:16:30;;;;;;;4.63;4.17;;;7.00;99.90;;;;;;5085046;28;20287;-72
2021/04/09 08:18:59;;;;;;;4.87;4.03;;;7.10;99.90;;;;;;5072103;28;20205;-71
2021/04/09 08:21:28;;;;;;;4.67;4.13;;;7.30;99.90;;;;;;5064729;28;20231;-74
2021/04/09 08:23:56;;;;;;;4.57;3.97;;;7.40;99.90;;;;;;5072012;28;20736;-72
2021/04/09 08:26:22;;;;;;;8.37;4.30;;;7.50;99.90;;;;;;5064147;28;21255;-74
2021/04/09 08:28:51;;;;;;;6.83;4.30;;;7.50;99.90;;;;;;5064178;28;20320;-74
2021/04/09 08:31:18;;;;;;;6.07;4.57;;;7.70;99.90;;;;;;5065766;28;20203;-74
2021/04/09 08:33:46;;;;;;;5.27;4.23;;;7.80;99.90;;;;;;5064809;28;20573;-74
2021/04/09 08:36:12;;;;;;;4.77;4.37;;;7.80;99.90;;;;;;5063879;28;20622;-74
2021/04/09 08:38:39;;;;;;;5.10;4.37;;;7.90;99.90;;;;;;5067538;28;20676;-75
2021/04/09 08:41:05;;;;;;;5.93;4.23;;;8.00;99.90;;;;;;5079349;28;20202;-74
2021/04/09 08:43:32;;;;;;;5.87;3.93;;;8.20;99.90;;;;;;5068076;28;20548;-74
2021/04/09 08:45:59;;;;;;;6.00;4.17;;;8.20;99.90;;;;;;5067344;28;20207;-74
2021/04/09 08:48:27;;;;;;;7.93;4.30;;;8.40;99.90;;;;;;5067581;28;20203;-74
2021/04/09 08:50:53;;;;;;;5.60;4.20;;;8.50;99.90;;;;;;5066686;28;20841;-74
2021/04/09 08:53:24;;;;;;;5.17;4.33;;;8.50;99.90;;;;;;5066545;28;20582;-74
2021/04/09 08:55:50;;;;;;;5.80;4.00;;;8.60;99.90;;;;;;5066169;28;20701;-74
2021/04/09 08:58:17;;;;;;;5.33;4.20;;;8.60;99.90;;;;;;5066663;28;20211;-74
2021/04/09 09:00:44;;;;;;;5.63;4.37;;;8.60;99.90;;;;;;5067442;28;20203;-74
2021/04/09 09:03:27;;;;;;;4.80;4.17;;;8.70;99.90;;;;;;5067761;28;20223;-74
2021/04/09 09:05:59;;;;;;;5.33;4.13;;;8.70;99.90;;;;;;5068133;28;20218;-74
2021/04/09 09:08:58;;;;;;;5.13;4.10;;;8.70;99.90;;;;;;5067745;28;20204;-74
2021/04/09 09:11:50;;;;;;;4.73;4.10;;;8.80;99.90;;;;;;5067918;28;20199;-74
2021/04/09 09:14:38;;;;;;;4.37;3.97;;;8.80;99.90;;;;;;5067337;28;20860;-74
2021/04/09 09:17:41;;;;;;;6.20;4.40;;;8.90;99.90;;;;;;5067819;28;20207;-74
2021/04/09 09:20:19;;;;;;;4.27;3.87;;;9.10;99.90;;;;;;5067552;28;20965;-74
2021/04/09 09:22:49;;;;;;;5.00;4.50;;;9.30;99.90;;;;;;5067491;28;20220;-74
2021/04/09 09:25:29;;;;;;;4.87;4.47;;;9.50;99.70;;;;;;5067632;28;20227;-74
2021/04/09 09:27:55;;;;;;;5.77;5.00;;;9.70;99.60;;;;;;5067923;28;20191;-74
2021/04/09 09:30:33;;;;;;;6.30;5.33;;;9.80;98.00;;;;;;5067459;28;20662;-74
2021/04/09 09:33:22;;;;;;;7.50;4.60;;;9.80;97.70;;;;;;5068071;28;20253;-74
2021/04/09 09:36:06;;;;;;;6.27;5.27;;;9.90;97.90;;;;;;5067301;28;20736;-74
2021/04/09 09:38:49;;;;;;;5.97;4.90;;;9.80;97.70;;;;;;5067547;28;20214;-74
2021/04/09 09:41:36;;;;;;;5.90;4.87;;;9.90;98.20;;;;;;5067840;28;20209;-74
2021/04/09 09:44:23;;;;;;;8.97;5.27;;;10.00;97.90;;;;;;5067619;28;20594;-75
2021/04/09 09:46:54;;;;;;;6.37;4.97;;;10.00;97.80;;;;;;5068627;28;20195;-74
2021/04/09 09:49:21;;;;;;;6.70;4.77;;;9.90;97.70;;;;;;5070987;28;20618;-74
2021/04/09 09:51:48;;;;;;;6.53;5.43;;;10.00;97.80;;;;;;5070955;28;20729;-74
2021/04/09 09:54:22;;;;;;;7.43;5.00;;;10.00;97.90;;;;;;5075520;28;20823;-74
2021/04/09 09:56:48;;;;;;;5.90;5.13;;;9.90;97.70;;;;;;5087950;28;20206;-75
2021/04/09 09:59:17;;;;;;;5.87;5.17;;;10.00;97.80;;;;;;5091118;28;20230;-74
2021/04/09 10:01:51;;;;;;;9.50;5.00;;;10.10;97.60;;;;;;5090873;28;20253;-74
2021/04/09 10:04:18;;;;;;;6.53;5.00;;;10.10;97.60;;;;;;5090661;28;20707;-74
2021/04/09 10:06:50;;;;;;;5.47;4.97;;;10.20;97.80;;;;;;5090755;28;20203;-75
2021/04/09 10:09:24;;;;;;;9.33;4.83;;;10.30;97.80;;;;;;5090230;28;20664;-75
2021/04/09 10:11:51;;;;;;;6.30;5.10;;;10.40;98.00;;;;;;5090467;28;20679;-73
2021/04/09 10:14:17;;;;;;;5.77;5.00;;;10.50;97.40;;;;;;5090523;28;20269;-72
2021/04/09 10:16:43;;;;;;;5.77;5.07;;;10.50;97.10;;;;;;5090416;28;20227;-72
2021/04/09 10:19:09;;;;;;;6.82;4.80;;;10.50;97.10;;;;;;5089942;28;20441;-75
2021/04/09 10:21:38;;;;;;;6.43;4.67;;;10.50;96.90;;;;;;5089568;28;20211;-75
2021/04/09 10:24:06;;;;;;;5.73;4.80;;;10.50;97.00;;;;;;5084062;28;20222;-75
2021/04/09 10:26:34;;;;;;;5.50;5.00;;;10.60;97.10;;;;;;5086506;28;20706;-75
2021/04/09 10:29:00;;;;;;;6.77;4.83;;;10.70;97.10;;;;;;5090520;28;20665;-75
2021/04/09 10:31:27;;;;;;;4.83;4.27;;;10.80;97.20;;;;;;5084141;28;20204;-75
2021/04/09 10:33:56;;;;;;;4.63;4.27;;;10.80;96.60;;;;;;5069994;28;20207;-75
2021/04/09 10:36:24;;;;;;;5.67;4.47;;;10.90;96.70;;;;;;5069832;28;20288;-75
2021/04/09 10:38:52;;;;;;;5.90;4.67;;;11.00;96.90;;;;;;5082380;28;20203;-75
2021/04/09 10:41:30;;;;;;;8.07;4.27;;;11.20;97.00;;;;;;5087845;28;20207;-75
2021/04/09 10:43:59;;;;;;;6.57;4.83;;;11.40;96.80;;;;;;5069758;28;20231;-75
2021/04/09 10:46:26;;;;;;;6.80;4.43;;;11.30;96.30;;;;;;5080671;28;20668;-75
2021/04/09 10:48:59;;;;;;;4.33;4.03;;;11.20;96.20;;;;;;5089591;28;20207;-75
2021/04/09 10:51:28;;;;;;;4.47;4.07;;;11.30;96.40;;;;;;5090004;28;20202;-75
2021/04/09 10:53:55;;;;;;;4.33;3.93;;;11.40;96.20;;;;;;5089634;28;20280;-75
2021/04/09 10:56:21;;;;;;;4.73;4.30;;;11.60;96.40;;;;;;5089659;28;20222;-75
2021/04/09 10:58:48;;;;;;;4.97;3.90;;;11.60;95.80;;;;;;5089451;28;20279;-75
2021/04/09 11:01:15;;;;;;;3.90;3.60;;;11.70;96.00;;;;;;5089850;28;20280;-75
2021/04/09 11:03:42;;;;;;;5.33;4.40;;;11.70;95.60;;;;;;5089593;28;20238;-75
2021/04/09 11:06:09;;;;;;;4.53;4.07;;;11.80;95.80;;;;;;5089249;28;20207;-76
2021/04/09 11:08:38;;;;;;;4.97;4.47;;;11.80;95.60;;;;;;5089506;28;20224;-75
2021/04/09 11:11:07;;;;;;;4.50;4.10;;;11.80;95.70;;;;;;5089544;28;20206;-76
2021/04/09 11:13:36;;;;;;;4.30;3.87;;;11.80;95.90;;;;;;5089344;28;20738;-75
2021/04/09 11:16:02;;;;;;;4.07;3.67;;;11.90;95.50;;;;;;5089219;28;20285;-75
2021/04/09 11:18:52;;;;;;;4.47;3.73;;;12.00;95.40;;;;;;5083196;28;20215;-75
2021/04/09 11:21:47;;;;;;;6.30;3.83;;;12.20;95.50;;;;;;5069107;28;20196;-75
2021/04/09 11:24:14;;;;;;;4.60;4.07;;;12.40;95.60;;;;;;5079102;28;20234;-75
2021/04/09 11:26:41;;;;;;;5.13;4.70;;;12.50;95.30;;;;;;5068625;28;20556;-75
2021/04/09 11:29:07;;;;;;;6.47;4.23;;;12.50;94.60;;;;;;5068732;28;20239;-75
2021/04/09 11:31:34;;;;;;;4.27;3.97;;;12.40;94.40;;;;;;5068967;28;20207;-75
2021/04/09 11:34:07;;;;;;;4.37;3.93;;;12.40;95.00;;;;;;5068910;28;20264;-75
2021/04/09 11:36:41;;;;;;;4.50;4.20;;;12.40;94.50;;;;;;5070226;28;20581;-74
2021/04/09 11:39:11;;;;;;;6.07;4.17;;;12.30;94.40;;;;;;5085303;28;20202;-77
2021/04/09 11:41:38;;;;;;;5.87;4.50;;;12.40;94.60;;;;;;5072519;28;20203;-76
2021/04/09 11:44:25;;;;;;;5.70;4.20;;;12.50;94.50;;;;;;5069754;28;20739;-76
2021/04/09 11:46:51;;;;;;;6.63;4.47;;;12.60;94.80;;;;;;5068714;28;20226;-76
2021/04/09 11:49:26;;;;;;;5.10;4.60;;;12.60;94.40;;;;;;5068459;28;20203;-76
2021/04/09 11:51:58;;;;;;;5.30;4.30;;;12.40;94.00;;;;;;5068125;28;20700;-76
2021/04/09 11:54:31;;;;;;;3.87;3.60;;;12.50;94.60;;;;;;5068865;28;20224;-76
2021/04/09 11:56:59;;;;;;;4.70;4.30;;;12.40;94.80;;;;;;5068480;28;20218;-76
2021/04/09 11:59:25;;;;;;;4.90;4.20;;;12.40;94.50;;;;;;5068107;28;20746;-76
2021/04/09 12:01:53;;;;;;;3.90;3.60;;;12.40;94.30;;;;;;5068074;28;20204;-76
2021/04/09 12:04:33;;;;;;;4.90;4.20;;;12.40;94.80;;;;;;5067978;28;20709;-75
2021/04/09 12:06:59;;;;;;;4.53;4.20;;;12.50;94.80;;;;;;5067964;28;20264;-76
2021/04/09 12:09:26;;;;;;;4.47;4.07;;;12.60;94.50;;;;;;5067545;28;20210;-76
2021/04/09 12:11:52;;;;;;;5.50;4.70;;;12.60;94.30;;;;;;5067864;28;20647;-76
2021/04/09 12:14:32;;;;;;;4.73;4.20;;;12.90;94.90;;;;;;5076644;28;20287;-75
2021/04/09 12:16:58;;;;;;;6.57;5.03;;;13.00;93.70;;;;;;5088086;28;20193;-76
2021/04/09 12:19:24;;;;;;;5.27;4.70;;;13.10;93.40;;;;;;5071320;28;20203;-76
2021/04/09 12:21:51;;;;;;;5.27;4.40;;;13.30;92.70;;;;;;5070754;28;20195;-75
2021/04/09 12:24:17;;;;;;;4.50;4.20;;;13.30;92.60;;;;;;5079487;28;20727;-75
2021/04/09 12:26:43;;;;;;;6.37;4.40;;;13.40;91.70;;;;;;5080375;28;20210;-76
2021/04/09 12:29:11;;;;;;;5.47;4.33;;;13.30;91.90;;;;;;5067994;28;20266;-76
2021/04/09 12:31:37;;;;;;;4.93;4.37;;;13.30;92.40;;;;;;5076399;28;20777;-76
2021/04/09 12:34:03;;;;;;;5.57;4.47;;;13.30;92.60;;;;;;5088051;28;20210;-76
2021/04/09 12:36:29;;;;;;;5.77;4.60;;;13.10;92.00;;;;;;5087894;28;20236;-76
2021/04/09 12:38:56;;;;;;;4.80;4.40;;;13.00;92.20;;;;;;5087745;28;20203;-76
2021/04/09 12:41:23;;;;;;;6.07;5.00;;;13.00;92.60;;;;;;5088202;28;20202;-76
2021/04/09 12:43:49;;;;;;;5.30;4.83;;;13.10;92.60;;;;;;5087792;28;20242;-76
2021/04/09 12:46:15;;;;;;;6.63;4.77;;;13.10;92.90;;;;;;5087784;28;20202;-76
2021/04/09 12:48:41;;;;;;;5.63;4.60;;;13.30;93.50;;;;;;5087993;28;20206;-76
2021/04/09 12:51:08;;;;;;;8.33;5.30;;;13.40;92.70;;;;;;5087514;28;20264;-76
2021/04/09 12:53:34;;;;;;;5.53;5.00;;;13.40;92.80;;;;;;5088047;28;20203;-76
2021/04/09 12:56:01;;;;;;;7.63;5.70;;;13.40;92.40;;;;;;5088161;28;20210;-76
2021/04/09 12:58:27;;;;;;;5.33;4.93;;;13.60;92.40;;;;;;5087995;28;20582;-77
2021/04/09 13:00:53;;;;;;;5.97;5.30;;;13.70;92.00;;;;;;5088100;28;20206;-76
2021/04/09 13:03:19;;;;;;;8.27;4.90;;;13.60;91.90;;;;;;5087949;28;20222;-76